Time,TemperatureF,DewpointF,PressureIn,WindDirection,WindDirectionDegrees,WindSpeedMPH,WindSpeedGustMPH,Humidity,HourlyPrecipIn,Conditions,Clouds,dailyrainin,SoftwareType,DateUTC
2013-03-04 00:12:00,31.7,23.0,30.14,South,172,0.0,0.0,70,0.00,,,0.00,weatherlink.com 1.10,2013-03-04 06:12:00,
2013-03-04 00:27:00,31.4,23.0,30.14,South,172,0.0,0.0,70,0.00,,,0.00,weatherlink.com 1.10,2013-03-04 06:27:00,
2013-03-04 00:42:00,31.0,24.0,30.14,South,172,0.0,0.0,74,0.00,,,0.00,weatherlink.com 1.10,2013-03-04 06:42:00,
2013-03-04 00:57:00,31.0,24.0,30.13,South,172,0.0,0.0,74,0.00,,,0.00,weatherlink.com 1.10,2013-03-04 06:57:00,
2013-03-04 01:12:00,31.1,25.0,30.13,South,172,0.0,0.0,79,0.00,,,0.00,weatherlink.com 1.10,2013-03-04 07:12:00,
2013-03-04 01:27:00,31.2,25.0,30.13,South,172,0.0,0.0,77,0.00,,,0.00,weatherlink.com 1.10,2013-03-04 07:27:00,
2013-03-04 01:42:00,31.3,23.0,30.13,South,172,0.0,0.0,71,0.00,,,0.00,weatherlink.com 1.10,2013-03-04 07:42:00,
2013-03-04 01:57:00,31.1,23.0,30.13,South,172,0.0,0.0,71,0.00,,,0.00,weatherlink.com 1.10,2013-03-04 07:57:00,
2013-03-04 02:12:00,30.6,23.0,30.14,South,172,0.0,0.0,73,0.00,,,0.00,weatherlink.com 1.10,2013-03-04 08:12:00,
2013-03-04 02:27:00,30.8,23.0,30.14,South,172,0.0,0.0,73,0.00,,,0.00,weatherlink.com 1.10,2013-03-04 08:27:00,
2013-03-04 02:42:00,30.5,22.0,30.14,South,172,0.0,0.0,70,0.00,,,0.00,weatherlink.com 1.10,2013-03-04 08:42:00,
2013-03-04 02:57:00,29.9,23.0,30.14,South,172,0.0,0.0,76,0.00,,,0.00,weatherlink.com 1.10,2013-03-04 08:57:00,
2013-03-04 03:12:00,29.6,23.0,30.14,South,172,0.0,0.0,77,0.00,,,0.00,weatherlink.com 1.10,2013-03-04 09:12:00,
2013-03-04 03:27:00,29.8,24.0,30.14,South,172,0.0,0.0,78,0.00,,,0.00,weatherlink.com 1.10,2013-03-04 09:27:00,
2013-03-04 03:42:00,29.6,24.0,30.15,South,172,0.0,0.0,81,0.00,,,0.00,weatherlink.com 1.10,2013-03-04 09:42:00,
2013-03-04 03:57:00,29.3,24.0,30.15,South,172,0.0,0.0,79,0.00,,,0.00,weatherlink.com 1.10,2013-03-04 09:57:00,
2013-03-04 04:12:00,28.8,23.0,30.15,South,172,0.0,0.0,79,0.00,,,0.00,weatherlink.com 1.10,2013-03-04 10:12:00,
2013-03-04 04:27:00,28.8,24.0,30.16,South,172,0.0,0.0,82,0.00,,,0.00,weatherlink.com 1.10,2013-03-04 10:27:00,
2013-03-04 04:42:00,28.4,25.0,30.16,South,172,0.0,0.0,85,0.00,,,0.00,weatherlink.com 1.10,2013-03-04 10:42:00,
2013-03-04 04:57:00,28.2,23.0,30.16,South,172,0.0,0.0,82,0.00,,,0.00,weatherlink.com 1.10,2013-03-04 10:57:00,
2013-03-04 05:12:00,27.9,23.0,30.16,South,172,0.0,0.0,82,0.00,,,0.00,weatherlink.com 1.10,2013-03-04 11:12:00,
2013-03-04 05:27:00,27.9,23.0,30.16,South,172,0.0,0.0,82,0.00,,,0.00,weatherlink.com 1.10,2013-03-04 11:27:00,
2013-03-04 05:42:00,28.8,24.0,30.17,South,172,0.0,0.0,83,0.00,,,0.00,weatherlink.com 1.10,2013-03-04 11:42:00,
2013-03-04 05:57:00,28.6,24.0,30.16,South,172,0.0,0.0,81,0.00,,,0.00,weatherlink.com 1.10,2013-03-04 11:57:00,
2013-03-04 06:12:00,28.9,23.0,30.17,South,172,0.0,0.0,79,0.00,,,0.00,weatherlink.com 1.10,2013-03-04 12:12:00,
2013-03-04 06:27:00,28.9,24.0,30.18,South,172,0.0,0.0,82,0.00,,,0.00,weatherlink.com 1.10,2013-03-04 12:27:00,
2013-03-04 06:42:00,29.3,24.0,30.18,South,172,0.0,0.0,81,0.00,,,0.00,weatherlink.com 1.10,2013-03-04 12:42:00,
2013-03-04 06:57:00,30.0,25.0,30.18,South,172,0.0,0.0,81,0.00,,,0.00,weatherlink.com 1.10,2013-03-04 12:57:00,
2013-03-04 07:12:00,33.1,26.0,30.19,SSE,164,0.0,0.0,75,0.00,,,0.00,weatherlink.com 1.10,2013-03-04 13:12:00,
2013-03-04 07:27:00,36.4,26.0,30.18,SE,132,0.0,2.0,66,0.00,,,0.00,weatherlink.com 1.10,2013-03-04 13:27:00,
2013-03-04 07:42:00,37.7,26.0,30.19,ENE,73,0.0,3.0,64,0.00,,,0.00,weatherlink.com 1.10,2013-03-04 13:42:00,
2013-03-04 07:57:00,41.5,27.0,30.19,ENE,60,1.0,2.0,57,0.00,,,0.00,weatherlink.com 1.10,2013-03-04 13:57:00,
2013-03-04 08:13:00,42.3,27.0,30.19,NE,53,1.0,3.0,56,0.00,,,0.00,weatherlink.com 1.10,2013-03-04 14:13:00,
2013-03-04 08:28:00,42.8,27.0,30.19,East,86,1.0,5.0,54,0.00,,,0.00,weatherlink.com 1.10,2013-03-04 14:28:00,
2013-03-04 08:43:00,45.7,28.0,30.19,ESE,121,0.0,3.0,50,0.00,,,0.00,weatherlink.com 1.10,2013-03-04 14:43:00,
2013-03-04 08:58:00,46.4,28.0,30.19,SE,129,1.0,2.0,50,0.00,,,0.00,weatherlink.com 1.10,2013-03-04 14:58:00,
2013-03-04 09:13:00,48.0,27.0,30.19,ESE,107,0.0,4.0,44,0.00,,,0.00,weatherlink.com 1.10,2013-03-04 15:13:00,
2013-03-04 09:28:00,49.3,26.0,30.18,ESE,105,1.0,3.0,41,0.00,,,0.00,weatherlink.com 1.10,2013-03-04 15:28:00,
2013-03-04 09:43:00,52.1,30.0,30.19,ESE,111,3.0,4.0,43,0.00,,,0.00,weatherlink.com 1.10,2013-03-04 15:43:00,
2013-03-04 09:58:00,52.0,27.0,30.18,East,98,2.0,5.0,38,0.00,,,0.00,weatherlink.com 1.10,2013-03-04 15:58:00,
2013-03-04 10:13:00,52.9,29.0,30.18,East,99,4.0,6.0,40,0.00,,,0.00,weatherlink.com 1.10,2013-03-04 16:13:00,
2013-03-04 10:28:00,53.9,29.0,30.18,ESE,114,2.0,4.0,38,0.00,,,0.00,weatherlink.com 1.10,2013-03-04 16:28:00,
2013-03-04 10:43:00,54.9,28.0,30.18,East,81,2.0,6.0,36,0.00,,,0.00,weatherlink.com 1.10,2013-03-04 16:43:00,
2013-03-04 10:58:00,55.3,27.0,30.18,SW,229,3.0,5.0,34,0.00,,,0.00,weatherlink.com 1.10,2013-03-04 16:58:00,
2013-03-04 11:13:00,55.4,29.0,30.16,East,86,1.0,5.0,36,0.00,,,0.00,weatherlink.com 1.10,2013-03-04 17:13:00,
2013-03-04 11:28:00,57.3,30.0,30.15,NNW,332,0.0,6.0,35,0.00,,,0.00,weatherlink.com 1.10,2013-03-04 17:28:00,
2013-03-04 11:43:00,57.6,28.0,30.15,SE,136,6.0,6.0,32,0.00,,,0.00,weatherlink.com 1.10,2013-03-04 17:43:00,
2013-03-04 11:58:00,57.5,28.0,30.14,NNE,26,0.0,11.0,32,0.00,,,0.00,weatherlink.com 1.10,2013-03-04 17:58:00,
2013-03-04 12:13:00,58.4,28.0,30.13,SE,136,2.0,9.0,32,0.00,,,0.00,weatherlink.com 1.10,2013-03-04 18:13:00,
2013-03-04 12:28:00,58.6,29.0,30.12,East,98,4.0,9.0,33,0.00,,,0.00,weatherlink.com 1.10,2013-03-04 18:28:00,
2013-03-04 12:43:00,59.9,31.0,30.11,WNW,284,3.0,10.0,33,0.00,,,0.00,weatherlink.com 1.10,2013-03-04 18:43:00,
2013-03-04 12:58:00,59.1,31.0,30.10,ENE,73,5.0,10.0,34,0.00,,,0.00,weatherlink.com 1.10,2013-03-04 18:58:00,
2013-03-04 13:13:00,60.8,32.0,30.09,South,191,5.0,12.0,34,0.00,,,0.00,weatherlink.com 1.10,2013-03-04 19:13:00,
2013-03-04 13:28:00,61.0,32.0,30.08,East,87,4.0,9.0,33,0.00,,,0.00,weatherlink.com 1.10,2013-03-04 19:28:00,
2013-03-04 13:43:00,63.1,32.0,30.07,East,88,5.0,8.0,31,0.00,,,0.00,weatherlink.com 1.10,2013-03-04 19:43:00,
2013-03-04 13:59:00,63.3,32.0,30.07,ESE,102,7.0,10.0,31,0.00,,,0.00,weatherlink.com 1.10,2013-03-04 19:59:00,
2013-03-04 14:14:00,61.7,31.0,30.06,East,100,2.0,10.0,32,0.00,,,0.00,weatherlink.com 1.10,2013-03-04 20:14:00,
2013-03-04 14:29:00,62.3,32.0,30.05,SE,139,6.0,8.0,32,0.00,,,0.00,weatherlink.com 1.10,2013-03-04 20:29:00,
2013-03-04 14:44:00,64.7,33.0,30.05,South,172,5.0,9.0,31,0.00,,,0.00,weatherlink.com 1.10,2013-03-04 20:44:00,
2013-03-04 14:59:00,64.1,33.0,30.04,SE,125,6.0,20.0,31,0.00,,,0.00,weatherlink.com 1.10,2013-03-04 20:59:00,
2013-03-04 15:14:00,63.3,33.0,30.04,ENE,57,5.0,11.0,32,0.00,,,0.00,weatherlink.com 1.10,2013-03-04 21:14:00,
2013-03-04 15:29:00,62.6,33.0,30.04,ESE,110,8.0,10.0,33,0.00,,,0.00,weatherlink.com 1.10,2013-03-04 21:29:00,
2013-03-04 15:44:00,61.8,33.0,30.04,ESE,118,3.0,13.0,34,0.00,,,0.00,weatherlink.com 1.10,2013-03-04 21:44:00,
2013-03-04 15:59:00,61.3,33.0,30.03,East,81,5.0,9.0,35,0.00,,,0.00,weatherlink.com 1.10,2013-03-04 21:59:00,
2013-03-04 16:14:00,60.9,33.0,30.03,SSE,155,3.0,11.0,35,0.00,,,0.00,weatherlink.com 1.10,2013-03-04 22:14:00,
2013-03-04 16:29:00,60.4,33.0,30.03,East,99,2.0,8.0,36,0.00,,,0.00,weatherlink.com 1.10,2013-03-04 22:29:00,
2013-03-04 16:44:00,60.0,33.0,30.03,SSE,152,2.0,10.0,37,0.00,,,0.00,weatherlink.com 1.10,2013-03-04 22:44:00,
2013-03-04 16:59:00,59.6,34.0,30.02,ESE,108,2.0,9.0,38,0.00,,,0.00,weatherlink.com 1.10,2013-03-04 22:59:00,
2013-03-04 17:14:00,59.3,33.0,30.03,SE,143,4.0,7.0,38,0.00,,,0.00,weatherlink.com 1.10,2013-03-04 23:14:00,
2013-03-04 17:29:00,59.0,35.0,30.02,ESE,112,6.0,7.0,40,0.00,,,0.00,weatherlink.com 1.10,2013-03-04 23:29:00,
2013-03-04 17:44:00,58.3,34.0,30.02,NE,49,2.0,6.0,41,0.00,,,0.00,weatherlink.com 1.10,2013-03-04 23:44:00,
2013-03-04 17:59:00,58.0,34.0,30.02,East,86,2.0,6.0,40,0.00,,,0.00,weatherlink.com 1.10,2013-03-04 23:59:00,
2013-03-04 18:14:00,57.7,34.0,30.02,ESE,103,1.0,6.0,41,0.00,,,0.00,weatherlink.com 1.10,2013-03-05 00:14:00,
2013-03-04 18:29:00,57.1,34.0,30.02,ESE,118,3.0,7.0,42,0.00,,,0.00,weatherlink.com 1.10,2013-03-05 00:29:00,
2013-03-04 18:45:00,56.7,34.0,30.02,ESE,110,4.0,9.0,42,0.00,,,0.00,weatherlink.com 1.10,2013-03-05 00:45:00,
2013-03-04 18:59:00,56.4,35.0,30.01,ESE,113,4.0,8.0,44,0.00,,,0.00,weatherlink.com 1.10,2013-03-05 00:59:00,
2013-03-04 19:14:00,56.3,34.0,30.02,SSE,167,4.0,7.0,44,0.00,,,0.00,weatherlink.com 1.10,2013-03-05 01:14:00,
2013-03-04 19:29:00,56.2,36.0,30.01,ENE,77,7.0,12.0,47,0.00,,,0.00,weatherlink.com 1.10,2013-03-05 01:29:00,
2013-03-04 19:44:00,55.9,38.0,30.02,ESE,113,7.0,9.0,51,0.00,,,0.00,weatherlink.com 1.10,2013-03-05 01:44:00,
2013-03-04 19:59:00,55.8,41.0,30.02,East,95,5.0,10.0,58,0.00,,,0.00,weatherlink.com 1.10,2013-03-05 01:59:00,
2013-03-04 20:14:00,55.9,43.0,30.03,SE,131,3.0,10.0,63,0.00,,,0.00,weatherlink.com 1.10,2013-03-05 02:14:00,
2013-03-04 20:29:00,55.7,45.0,30.03,East,98,7.0,10.0,67,0.00,,,0.00,weatherlink.com 1.10,2013-03-05 02:29:00,
2013-03-04 20:44:00,55.3,45.0,30.02,East,82,3.0,12.0,68,0.00,,,0.00,weatherlink.com 1.10,2013-03-05 02:44:00,
2013-03-04 20:59:00,54.8,45.0,30.03,ESE,122,4.0,8.0,69,0.00,,,0.00,weatherlink.com 1.10,2013-03-05 02:59:00,
2013-03-04 21:14:00,54.6,45.0,30.03,South,186,4.0,8.0,70,0.00,,,0.00,weatherlink.com 1.10,2013-03-05 03:14:00,
2013-03-04 21:29:00,54.3,45.0,30.03,ESE,104,5.0,9.0,71,0.00,,,0.00,weatherlink.com 1.10,2013-03-05 03:29:00,
2013-03-04 21:44:00,53.9,45.0,30.03,South,169,9.0,9.0,72,0.00,,,0.00,weatherlink.com 1.10,2013-03-05 03:44:00,
2013-03-04 21:59:00,53.7,45.0,30.03,SSE,149,3.0,7.0,73,0.00,,,0.00,weatherlink.com 1.10,2013-03-05 03:59:00,
2013-03-04 22:14:00,53.5,45.0,30.03,South,191,7.0,7.0,74,0.00,,,0.00,weatherlink.com 1.10,2013-03-05 04:14:00,
2013-03-04 22:29:00,53.3,46.0,30.03,ESE,102,3.0,7.0,75,0.00,,,0.00,weatherlink.com 1.10,2013-03-05 04:29:00,
2013-03-04 22:44:00,53.2,46.0,30.02,South,169,3.0,7.0,76,0.00,,,0.00,weatherlink.com 1.10,2013-03-05 04:44:00,
2013-03-04 22:59:00,52.9,46.0,30.02,ESE,103,2.0,6.0,77,0.00,,,0.00,weatherlink.com 1.10,2013-03-05 04:59:00,
2013-03-04 23:14:00,52.8,46.0,30.03,ENE,65,2.0,6.0,78,0.00,,,0.00,weatherlink.com 1.10,2013-03-05 05:14:00,
2013-03-04 23:29:00,52.6,46.0,30.03,East,100,0.0,5.0,78,0.00,,,0.00,weatherlink.com 1.10,2013-03-05 05:29:00,
2013-03-04 23:44:00,52.6,46.0,30.03,SSE,162,2.0,6.0,78,0.00,,,0.00,weatherlink.com 1.10,2013-03-05 05:44:00,
2013-03-04 23:59:00,52.5,46.0,30.03,ESE,108,1.0,5.0,79,0.00,,,0.00,weatherlink.com 1.10,2013-03-05 05:59:00,